Aeroporto :
LOGIN :

Iscrizione | Disclaimer

   EN    FR    IT 

 










Sommario :    VFR   VFR Marginale   IFR   IFR Intensivo   IFR Molto Intensivo
Visibilità : 
Base nubi : 
>= 8 km
>= 3000ft
5 / 8 km
1000 / 3000 ft
1500m / 5 km
500 / 1000 ft
800 / 1500m
200 / 500 ft
< 800m
< 200 ft
Simboli :   Temporali  Nebbia  Neve Forte  Precipitazioni Forti  Vento > 20 kt
SIGMETs :   Varie  Temporali  Ghiacco  Turbolenza  Onda orograficha  Ceneri Vulcaniche






- Altitudine del aeroporto : 659 ft
- Codice IATA : LYN


LFLY - Lyon Bron

ULTIMO METAR :
  • 310700Z AUTO VRB02KT 0350 R34/0500N FG VV/// 07/06 Q1025 TEMPO 0600 FG

METARs OBSOLETI :
  • 310630Z AUTO 33003KT 1200 0450 R34/1500D BCFG VV/// 07/06 Q1025 TEMPO 0600 FG
  • 310600Z AUTO VRB03KT 8000 OVC003 06/06 Q1024 TEMPO 0600 FG VV///
  • 310530Z AUTO VRB01KT 5000 1900 BR OVC003 05/05 Q1024 TEMPO 0600 FG VV///
  • 310500Z AUTO 00000KT 6000 SCT002 05/05 Q1024 TEMPO 0600 FG VV///
  • 310430Z AUTO 09001KT 8000 R34/1100U NSC 06/05 Q1024 TEMPO 0600 FG VV///
  • 310400Z AUTO 00000KT 6000 NSC 06/05 Q1024 TEMPO 0600 FG VV///

TAF TAF LFLY
Valido dal 31 a 06 ore il 01 a 06 ore UTC


310500Z 3106/0106 VRB03KT 6000 NSC
TEMPO 3106/3109 3000 BR
PROB40
TEMPO 3106/3109 0600 FG VV///
BECMG 3109/3111 16005KT CAVOK
ATIS : +33 4 72 15 87 96



MetMap, La meteo Aeronautica in un colpo d'occhio ! - Copyright ORBIFLY Dicembre 2007 - Disclaimer

ORBIFLY MET'MAP TEAM :

Programmazione e sviluppo : Alexandra Zaïnal
Concezione : Baudouin d'Aumeries
Aiuto per la programmazione : Marc-Olivier Méhu
Supporto tecnico e logistico : Manuel Goepfert
Aiuto per la traduzione : Arnaldo La Scala

Contatto : metmap@orbifly.com




FONTI E CREDITI :

   NOAA